createdAt,value
2023-08-07T00:00:06.652Z,16.36
2023-08-07T00:02:40.301Z,16.41
2023-08-07T00:05:11.665Z,16.41
2023-08-07T00:07:44.783Z,16.38
2023-08-07T00:10:15.767Z,16.36
2023-08-07T00:12:47.034Z,16.39
2023-08-07T00:15:17.812Z,16.50
2023-08-07T00:17:48.599Z,16.36
2023-08-07T00:20:19.155Z,16.36
2023-08-07T00:22:52.362Z,16.39
2023-08-07T00:25:23.746Z,16.29
2023-08-07T00:27:54.308Z,16.27
2023-08-07T00:30:25.013Z,16.21
2023-08-07T00:32:56.445Z,16.23
2023-08-07T00:35:27.105Z,16.27
2023-08-07T00:38:00.358Z,16.36
2023-08-07T00:40:32.260Z,16.31
2023-08-07T00:43:02.779Z,16.30
2023-08-07T00:45:33.420Z,16.30
2023-08-07T00:48:04.118Z,16.28
2023-08-07T00:50:46.557Z,16.28
2023-08-07T00:53:20.934Z,16.20
2023-08-07T00:55:51.907Z,16.23
2023-08-07T00:58:23.231Z,16.34
2023-08-07T01:00:54.110Z,16.30
2023-08-07T01:03:25.143Z,16.35
2023-08-07T01:05:55.718Z,16.32
2023-08-07T01:08:29.674Z,16.34
2023-08-07T01:11:19.928Z,16.35
2023-08-07T01:14:00.086Z,16.30
2023-08-07T01:16:48.724Z,16.30
2023-08-07T01:19:29.433Z,16.32
2023-08-07T01:22:12.877Z,16.27
2023-08-07T01:24:48.591Z,16.28
2023-08-07T01:27:36.327Z,16.32
2023-08-07T01:30:21.037Z,16.34
2023-08-07T01:33:04.161Z,16.27
2023-08-07T01:35:40.662Z,16.28
2023-08-07T01:38:16.724Z,16.24
2023-08-07T01:40:49.007Z,16.19
2023-08-07T01:43:21.587Z,16.14
2023-08-07T01:45:52.617Z,16.17
2023-08-07T01:48:25.868Z,16.19
2023-08-07T01:50:57.895Z,16.19
2023-08-07T01:53:30.740Z,16.17
2023-08-07T01:56:01.341Z,16.20
2023-08-07T01:58:31.879Z,16.20
2023-08-07T02:01:02.367Z,16.19
2023-08-07T02:03:33.558Z,16.26
2023-08-07T02:06:04.920Z,16.26
2023-08-07T02:08:38.046Z,16.26
2023-08-07T02:11:08.623Z,16.14
2023-08-07T02:13:40.386Z,16.06
2023-08-07T02:16:08.392Z,16.09
2023-08-07T02:18:39.156Z,16.04
2023-08-07T02:21:10.607Z,16.10
2023-08-07T02:23:44.222Z,16.11
2023-08-07T02:26:15.938Z,16.06
2023-08-07T02:28:47.062Z,16.11
2023-08-07T02:31:18.055Z,16.11
2023-08-07T02:33:48.684Z,16.10
2023-08-07T02:36:19.542Z,16.06
2023-08-07T02:38:54.274Z,16.05
2023-08-07T02:41:25.692Z,16.03
2023-08-07T02:43:58.296Z,16.02
2023-08-07T02:46:29.577Z,16.00
2023-08-07T02:49:00.978Z,16.05
2023-08-07T02:51:31.814Z,16.06
2023-08-07T02:54:07.396Z,16.01
2023-08-07T02:56:37.956Z,16.04
2023-08-07T02:59:09.193Z,16.03
2023-08-07T03:01:39.999Z,16.02
2023-08-07T03:04:10.585Z,16.04
2023-08-07T03:06:41.201Z,16.05
2023-08-07T03:09:15.876Z,16.05
2023-08-07T03:11:47.176Z,16.05
2023-08-07T03:14:17.708Z,16.07
2023-08-07T03:16:49.781Z,16.05
2023-08-07T03:19:22.870Z,15.99
2023-08-07T03:21:54.521Z,16.02
2023-08-07T03:24:27.819Z,16.03
2023-08-07T03:26:58.854Z,16.06
2023-08-07T03:29:30.280Z,16.01
2023-08-07T03:32:01.658Z,16.04
2023-08-07T03:34:33.385Z,16.02
2023-08-07T03:37:05.207Z,16.07
2023-08-07T03:39:38.919Z,16.04
2023-08-07T03:42:10.405Z,15.98
2023-08-07T03:44:42.429Z,16.01
2023-08-07T03:47:13.134Z,16.02
2023-08-07T03:49:44.013Z,16.03
2023-08-07T03:52:15.352Z,15.98
2023-08-07T03:54:49.106Z,15.98
2023-08-07T03:57:21.002Z,16.03
2023-08-07T03:59:55.583Z,16.09
2023-08-07T04:02:26.757Z,16.12
2023-08-07T04:04:57.776Z,16.08
2023-08-07T04:07:28.484Z,16.10
2023-08-07T04:10:02.041Z,16.10
2023-08-07T04:12:32.794Z,16.10
2023-08-07T04:15:06.216Z,16.09
2023-08-07T04:17:37.859Z,16.11
2023-08-07T04:20:11.642Z,16.11
2023-08-07T04:22:46.154Z,16.12
2023-08-07T04:25:20.411Z,16.02
2023-08-07T04:27:51.052Z,16.07
2023-08-07T04:30:21.855Z,16.01
2023-08-07T04:32:52.674Z,15.96
2023-08-07T04:35:23.668Z,15.90
2023-08-07T04:37:54.855Z,15.90
2023-08-07T04:40:28.788Z,15.91
2023-08-07T04:43:00.390Z,15.86
2023-08-07T04:45:31.248Z,15.84
2023-08-07T04:48:01.500Z,15.79
2023-08-07T04:50:32.013Z,15.79
2023-08-07T04:53:02.548Z,15.80
2023-08-07T04:55:36.111Z,15.80
2023-08-07T04:58:06.861Z,15.70
2023-08-07T05:00:38.079Z,15.62
2023-08-07T05:03:09.017Z,15.64
2023-08-07T05:05:39.939Z,15.63
2023-08-07T05:08:10.416Z,15.67
2023-08-07T05:10:46.732Z,15.65
2023-08-07T05:13:17.273Z,15.73
2023-08-07T05:15:47.809Z,15.68
2023-08-07T05:18:18.348Z,15.67
2023-08-07T05:20:48.911Z,15.62
2023-08-07T05:23:19.436Z,15.59
2023-08-07T05:25:53.004Z,15.68
2023-08-07T05:28:23.564Z,15.68
2023-08-07T05:30:54.136Z,15.70
2023-08-07T05:33:24.759Z,15.75
2023-08-07T05:35:56.801Z,15.79
2023-08-07T05:38:27.479Z,15.80
2023-08-07T05:41:00.564Z,15.79
2023-08-07T05:43:31.093Z,15.78
2023-08-07T05:46:01.691Z,15.70
2023-08-07T05:48:32.289Z,15.78
2023-08-07T05:51:02.794Z,15.85
2023-08-07T05:53:33.436Z,15.90
2023-08-07T05:56:07.557Z,15.90
2023-08-07T05:58:38.079Z,15.90
2023-08-07T06:01:09.246Z,15.95
2023-08-07T06:03:39.808Z,15.92
2023-08-07T06:06:10.380Z,15.88
2023-08-07T06:08:41.176Z,15.94
2023-08-07T06:11:14.336Z,16.04
2023-08-07T06:13:45.308Z,16.07
2023-08-07T06:16:16.050Z,16.12
2023-08-07T06:18:47.130Z,16.24
2023-08-07T06:21:17.679Z,16.23
2023-08-07T06:23:48.342Z,16.13
2023-08-07T06:26:21.496Z,16.17
2023-08-07T06:28:52.083Z,16.13
2023-08-07T06:31:22.789Z,16.18
2023-08-07T06:33:54.413Z,16.14
2023-08-07T06:36:24.872Z,16.09
2023-08-07T06:38:55.445Z,16.12
2023-08-07T06:41:28.562Z,16.18
2023-08-07T06:43:59.073Z,16.21
2023-08-07T06:46:29.809Z,16.24
2023-08-07T06:49:00.351Z,16.19
2023-08-07T06:51:30.885Z,16.31
2023-08-07T06:54:01.407Z,16.38
2023-08-07T06:56:34.614Z,16.26
2023-08-07T06:59:05.563Z,16.26
2023-08-07T07:01:36.269Z,16.21
2023-08-07T07:04:06.957Z,16.14
2023-08-07T07:06:38.145Z,16.08
2023-08-07T07:09:08.977Z,16.09
2023-08-07T07:11:41.766Z,15.97
2023-08-07T07:14:12.522Z,15.81
2023-08-07T07:16:43.558Z,15.86
2023-08-07T07:19:14.492Z,16.01
2023-08-07T07:21:44.658Z,16.00
2023-08-07T07:24:15.174Z,16.06
2023-08-07T07:26:48.332Z,15.94
2023-08-07T07:29:20.850Z,15.93
2023-08-07T07:31:51.457Z,16.05
2023-08-07T07:34:22.182Z,16.07
2023-08-07T07:36:54.980Z,16.06
2023-08-07T07:39:25.631Z,16.20
2023-08-07T07:41:58.988Z,16.26
2023-08-07T07:44:30.319Z,16.26
2023-08-07T07:47:01.032Z,16.32
2023-08-07T07:49:31.916Z,16.46
2023-08-07T07:52:02.090Z,16.47
2023-08-07T07:54:33.171Z,16.46
2023-08-07T07:57:06.458Z,16.37
2023-08-07T07:59:36.995Z,16.47
2023-08-07T08:02:08.091Z,16.66
2023-08-07T08:04:39.044Z,16.75
2023-08-07T08:07:10.259Z,16.79
2023-08-07T08:09:40.779Z,16.56
2023-08-07T08:12:14.609Z,16.61
2023-08-07T08:14:55.826Z,16.69
2023-08-07T08:17:27.624Z,16.61
2023-08-07T08:19:58.250Z,16.82
2023-08-07T08:22:28.886Z,17.09
2023-08-07T08:24:59.395Z,16.95
2023-08-07T08:27:32.555Z,16.97
2023-08-07T08:30:03.072Z,16.94
2023-08-07T08:32:33.656Z,16.95
2023-08-07T08:35:04.572Z,16.79
2023-08-07T08:37:35.070Z,16.66
2023-08-07T08:40:07.853Z,16.70
2023-08-07T08:42:43.929Z,16.73
2023-08-07T08:45:16.400Z,16.57
2023-08-07T08:47:48.854Z,16.53
2023-08-07T08:50:19.650Z,16.53
2023-08-07T08:52:50.352Z,16.39
2023-08-07T08:55:22.242Z,16.37
2023-08-07T08:57:56.121Z,16.38
2023-08-07T09:00:28.801Z,16.48
2023-08-07T09:03:00.189Z,16.41
2023-08-07T09:05:32.384Z,16.28
2023-08-07T09:08:04.826Z,16.12
2023-08-07T09:10:36.505Z,16.00
2023-08-07T09:13:15.250Z,15.92
2023-08-07T09:15:51.950Z,16.14
2023-08-07T09:18:23.168Z,16.19
2023-08-07T09:20:54.059Z,16.30
2023-08-07T09:23:24.490Z,16.31
2023-08-07T09:26:04.141Z,16.35
2023-08-07T09:28:37.783Z,16.25
2023-08-07T09:31:11.544Z,16.51
2023-08-07T09:33:43.719Z,16.71
2023-08-07T09:36:14.259Z,16.72
2023-08-07T09:38:44.830Z,16.63
2023-08-07T09:41:15.792Z,16.78
2023-08-07T09:43:49.071Z,16.82
2023-08-07T09:46:22.770Z,17.05
2023-08-07T09:48:53.385Z,17.13
2023-08-07T09:51:23.852Z,17.18
2023-08-07T09:53:54.360Z,16.99
2023-08-07T09:56:24.961Z,17.01
2023-08-07T09:58:58.073Z,16.89
2023-08-07T10:01:30.894Z,16.82
2023-08-07T10:04:02.005Z,16.72
2023-08-07T10:06:32.593Z,16.98
2023-08-07T10:09:05.388Z,17.22
2023-08-07T10:11:36.470Z,17.03
2023-08-07T10:14:10.138Z,16.88
2023-08-07T10:16:43.019Z,16.93
2023-08-07T10:19:14.303Z,17.05
2023-08-07T10:21:45.442Z,17.03
2023-08-07T10:24:16.336Z,17.11
2023-08-07T10:26:48.603Z,17.31
2023-08-07T10:29:25.290Z,17.39
2023-08-07T10:31:57.095Z,17.56
2023-08-07T10:34:27.644Z,17.52
2023-08-07T10:36:58.546Z,17.64
2023-08-07T10:39:29.371Z,17.72
2023-08-07T10:42:00.086Z,17.81
2023-08-07T10:44:35.174Z,17.94
2023-08-07T10:47:05.821Z,17.59
2023-08-07T10:49:38.851Z,17.38
2023-08-07T10:52:17.898Z,17.32
2023-08-07T10:54:52.015Z,17.30
2023-08-07T10:57:24.415Z,17.05
2023-08-07T11:00:10.324Z,17.02
2023-08-07T11:02:43.636Z,17.02
2023-08-07T11:05:14.670Z,17.14
2023-08-07T11:07:45.961Z,17.31
2023-08-07T11:10:19.413Z,17.65
2023-08-07T11:12:50.026Z,18.03
2023-08-07T11:15:23.675Z,18.17
2023-08-07T11:17:54.300Z,17.75
2023-08-07T11:20:24.888Z,17.69
2023-08-07T11:22:55.398Z,17.59
2023-08-07T11:25:25.931Z,17.46
2023-08-07T11:27:56.462Z,17.55
2023-08-07T11:30:29.790Z,17.87
2023-08-07T11:33:01.847Z,18.62
2023-08-07T11:35:33.262Z,20.15
2023-08-07T11:38:03.845Z,19.95
2023-08-07T11:40:34.357Z,19.79
2023-08-07T11:43:05.722Z,19.38
2023-08-07T11:45:39.676Z,19.16
2023-08-07T11:48:10.290Z,18.92
2023-08-07T11:50:41.832Z,19.23
2023-08-07T11:53:12.535Z,19.59
2023-08-07T11:55:50.994Z,21.47
2023-08-07T11:58:21.577Z,22.29
2023-08-07T12:00:56.191Z,23.42
2023-08-07T12:03:31.966Z,23.01
2023-08-07T12:06:06.650Z,22.13
2023-08-07T12:08:38.391Z,21.03
2023-08-07T12:11:11.741Z,19.89
2023-08-07T12:13:43.710Z,19.32
2023-08-07T12:16:19.891Z,19.04
2023-08-07T12:18:52.213Z,18.95
2023-08-07T12:21:26.231Z,18.93
2023-08-07T12:24:00.138Z,19.36
2023-08-07T12:26:30.679Z,20.04
2023-08-07T12:29:01.164Z,20.72
2023-08-07T12:31:34.391Z,21.31
2023-08-07T12:36:38.438Z,21.64
2023-08-07T12:39:08.686Z,22.25
2023-08-07T12:44:13.860Z,20.67
2023-08-07T12:46:47.034Z,19.73
2023-08-07T12:49:17.597Z,19.15
2023-08-07T12:51:50.053Z,18.87
2023-08-07T12:54:20.538Z,19.30
2023-08-07T12:56:51.069Z,19.38
2023-08-07T12:59:21.627Z,19.60
2023-08-07T13:01:54.749Z,19.88
2023-08-07T13:04:25.270Z,19.77
2023-08-07T13:06:56.260Z,19.46
2023-08-07T13:09:27.256Z,19.04
2023-08-07T13:11:57.731Z,18.84
2023-08-07T13:14:28.311Z,19.06
2023-08-07T13:17:01.659Z,20.61
2023-08-07T13:19:32.410Z,21.43
2023-08-07T13:22:02.967Z,20.57
2023-08-07T13:24:33.442Z,19.92
2023-08-07T13:27:04.759Z,19.70
2023-08-07T13:29:35.904Z,20.14
2023-08-07T13:32:10.853Z,20.24
2023-08-07T13:34:41.767Z,19.81
2023-08-07T13:37:12.250Z,19.64
2023-08-07T13:39:42.746Z,19.51
2023-08-07T13:42:13.727Z,19.22
2023-08-07T13:44:45.337Z,19.00
2023-08-07T13:47:19.314Z,18.87
2023-08-07T13:49:49.797Z,18.72
2023-08-07T13:52:20.360Z,18.84
2023-08-07T13:54:50.967Z,18.66
2023-08-07T13:57:21.571Z,18.60
2023-08-07T13:59:52.093Z,18.41
2023-08-07T14:02:25.311Z,18.57
2023-08-07T14:04:55.875Z,18.62
2023-08-07T14:07:26.339Z,18.78
2023-08-07T14:09:57.762Z,18.88
2023-08-07T14:12:28.425Z,18.67
2023-08-07T14:14:58.961Z,18.37
2023-08-07T14:17:32.061Z,17.92
2023-08-07T14:20:02.714Z,17.79
2023-08-07T14:22:33.457Z,17.80
2023-08-07T14:25:03.650Z,17.88
2023-08-07T14:27:35.018Z,18.13
2023-08-07T14:30:05.686Z,18.05
2023-08-07T14:32:38.886Z,18.06
2023-08-07T14:35:11.210Z,17.81
2023-08-07T14:37:41.708Z,17.65
2023-08-07T14:40:13.233Z,17.55
2023-08-07T14:42:43.675Z,17.44
2023-08-07T14:45:17.228Z,17.34
2023-08-07T14:47:50.481Z,17.42
2023-08-07T14:50:21.374Z,17.36
2023-08-07T14:52:51.521Z,17.09
2023-08-07T14:55:22.150Z,17.06
2023-08-07T14:57:52.757Z,16.99
2023-08-07T15:00:23.856Z,16.89
2023-08-07T15:02:59.064Z,16.81
2023-08-07T15:05:29.675Z,16.79
2023-08-07T15:08:01.220Z,16.91
2023-08-07T15:10:31.873Z,16.99
2023-08-07T15:13:02.638Z,17.11
2023-08-07T15:15:34.016Z,17.36
2023-08-07T15:18:07.326Z,17.57
2023-08-07T15:20:39.237Z,17.31
2023-08-07T15:23:09.734Z,17.20
2023-08-07T15:25:43.498Z,17.17
2023-08-07T15:28:13.979Z,17.30
2023-08-07T15:30:51.294Z,17.47
2023-08-07T15:33:25.281Z,17.88
2023-08-07T15:35:58.646Z,17.82
2023-08-07T15:38:30.663Z,17.93
2023-08-07T15:41:01.267Z,17.78
2023-08-07T15:43:32.006Z,17.72
2023-08-07T15:46:02.295Z,17.58
2023-08-07T15:48:35.478Z,17.34
2023-08-07T15:51:06.466Z,17.21
2023-08-07T15:53:37.056Z,17.20
2023-08-07T15:56:08.715Z,17.12
2023-08-07T15:58:39.386Z,17.12
2023-08-07T16:01:09.983Z,17.14
2023-08-07T16:03:43.200Z,17.19
2023-08-07T16:06:13.784Z,17.04
2023-08-07T16:08:44.476Z,16.96
2023-08-07T16:11:15.056Z,16.89
2023-08-07T16:13:46.881Z,16.81
2023-08-07T16:16:19.042Z,16.74
2023-08-07T16:18:52.635Z,16.84
2023-08-07T16:21:23.207Z,16.89
2023-08-07T16:23:53.903Z,17.02
2023-08-07T16:26:24.493Z,17.14
2023-08-07T16:28:55.058Z,17.07
2023-08-07T16:31:25.683Z,16.96
2023-08-07T16:33:58.840Z,17.05
2023-08-07T16:36:29.401Z,17.28
2023-08-07T16:39:00.052Z,17.30
2023-08-07T16:41:30.761Z,17.23
2023-08-07T16:44:01.264Z,17.03
2023-08-07T16:46:33.673Z,16.91
2023-08-07T16:49:06.966Z,16.72
2023-08-07T16:51:37.508Z,16.76
2023-08-07T16:54:08.161Z,16.85
2023-08-07T16:56:38.761Z,16.97
2023-08-07T16:59:09.289Z,17.00
2023-08-07T17:01:39.872Z,17.10
2023-08-07T17:04:13.122Z,17.07
2023-08-07T17:06:43.761Z,17.02
2023-08-07T17:09:14.448Z,16.95
2023-08-07T17:11:45.010Z,16.95
2023-08-07T17:14:15.739Z,17.02
2023-08-07T17:16:46.349Z,16.95
2023-08-07T17:19:19.538Z,16.67
2023-08-07T17:21:50.046Z,16.50
2023-08-07T17:24:20.596Z,16.38
2023-08-07T17:26:51.226Z,16.25
2023-08-07T17:29:21.760Z,16.19
2023-08-07T17:31:54.893Z,16.06
2023-08-07T17:34:28.101Z,15.97
2023-08-07T17:36:58.803Z,15.85
2023-08-07T17:39:29.195Z,15.83
2023-08-07T17:41:59.829Z,16.07
2023-08-07T17:44:30.347Z,16.05
2023-08-07T17:47:01.192Z,15.93
2023-08-07T17:49:35.323Z,15.80
2023-08-07T17:52:06.062Z,15.80
2023-08-07T17:54:37.405Z,15.84
2023-08-07T17:57:09.688Z,15.84
2023-08-07T17:59:40.311Z,15.84
2023-08-07T18:02:10.960Z,15.89
2023-08-07T18:04:44.333Z,15.89
2023-08-07T18:07:16.051Z,15.87
2023-08-07T18:09:46.583Z,15.76
2023-08-07T18:12:17.167Z,15.77
2023-08-07T18:14:47.794Z,15.73
2023-08-07T18:17:18.518Z,15.72
2023-08-07T18:19:51.623Z,15.81
2023-08-07T18:22:22.386Z,15.79
2023-08-07T18:24:52.878Z,15.75
2023-08-07T18:27:23.828Z,15.72
2023-08-07T18:29:54.504Z,15.71
2023-08-07T18:32:25.121Z,15.76
2023-08-07T18:34:58.334Z,15.78
2023-08-07T18:37:28.957Z,15.74
2023-08-07T18:40:02.023Z,15.73
2023-08-07T18:42:32.568Z,15.81
2023-08-07T18:45:05.596Z,15.66
2023-08-07T18:47:36.169Z,15.64
2023-08-07T18:50:11.683Z,15.64
2023-08-07T18:52:42.261Z,15.61
2023-08-07T18:55:13.271Z,15.63
2023-08-07T18:57:44.662Z,15.56
2023-08-07T19:00:16.406Z,15.59
2023-08-07T19:02:47.228Z,15.55
2023-08-07T19:05:20.386Z,15.50
2023-08-07T19:07:50.960Z,15.50
2023-08-07T19:10:21.764Z,15.43
2023-08-07T19:12:54.567Z,15.40
2023-08-07T19:15:25.492Z,15.37
2023-08-07T19:17:55.702Z,15.41
2023-08-07T19:20:28.971Z,15.32
2023-08-07T19:22:59.533Z,15.26
2023-08-07T19:25:30.010Z,15.24
2023-08-07T19:28:00.575Z,15.19
2023-08-07T19:30:32.157Z,15.15
2023-08-07T19:33:02.954Z,15.13
2023-08-07T19:35:36.733Z,15.20
2023-08-07T19:38:07.907Z,15.18
2023-08-07T19:40:38.537Z,15.10
2023-08-07T19:43:09.078Z,15.00
2023-08-07T19:45:39.510Z,14.99
2023-08-07T19:48:10.561Z,15.09
2023-08-07T19:50:43.743Z,15.16
2023-08-07T19:53:14.399Z,15.12
2023-08-07T19:55:45.043Z,15.03
2023-08-07T19:58:15.629Z,15.01
2023-08-07T20:00:46.179Z,15.09
2023-08-07T20:03:17.708Z,15.09
2023-08-07T20:05:50.910Z,15.07
2023-08-07T20:08:21.541Z,15.02
2023-08-07T20:10:52.203Z,15.06
2023-08-07T20:13:23.752Z,15.00
2023-08-07T20:15:54.348Z,14.96
2023-08-07T20:18:25.307Z,14.92
2023-08-07T20:20:58.103Z,14.91
2023-08-07T20:23:28.758Z,14.96
2023-08-07T20:26:00.784Z,14.95
2023-08-07T20:28:31.352Z,14.93
2023-08-07T20:31:02.101Z,14.84
2023-08-07T20:33:32.717Z,14.79
2023-08-07T20:36:08.784Z,14.85
2023-08-07T20:38:39.497Z,14.93
2023-08-07T20:41:11.804Z,14.95
2023-08-07T20:43:42.881Z,14.92
2023-08-07T20:46:13.504Z,14.87
2023-08-07T20:48:45.327Z,14.84
2023-08-07T20:51:19.750Z,14.79
2023-08-07T20:53:57.727Z,14.79
2023-08-07T20:56:33.388Z,14.79
2023-08-07T20:59:06.634Z,14.83
2023-08-07T21:01:41.306Z,14.83
2023-08-07T21:04:11.906Z,14.94
2023-08-07T21:06:45.466Z,14.95
2023-08-07T21:09:16.548Z,14.90
2023-08-07T21:11:51.722Z,14.92
2023-08-07T21:14:22.336Z,14.94
2023-08-07T21:16:53.031Z,14.97
2023-08-07T21:19:29.792Z,15.03
2023-08-07T21:22:03.341Z,14.99
2023-08-07T21:24:33.844Z,14.95
2023-08-07T21:27:04.354Z,14.93
2023-08-07T21:29:43.042Z,14.88
2023-08-07T21:32:24.233Z,14.96
2023-08-07T21:34:55.211Z,15.01
2023-08-07T21:37:38.577Z,15.16
2023-08-07T21:40:17.225Z,15.09
2023-08-07T21:43:03.802Z,15.04
2023-08-07T21:45:34.576Z,14.95
2023-08-07T21:48:06.627Z,15.01
2023-08-07T21:50:40.182Z,15.02
2023-08-07T21:53:14.772Z,14.96
2023-08-07T21:55:46.698Z,14.95
2023-08-07T21:58:17.276Z,14.93
2023-08-07T22:00:47.746Z,14.92
2023-08-07T22:03:18.356Z,14.89
2023-08-07T22:05:48.851Z,14.94
2023-08-07T22:08:21.923Z,14.91
2023-08-07T22:10:52.473Z,14.96
2023-08-07T22:13:23.105Z,14.93
2023-08-07T22:15:53.534Z,14.93
2023-08-07T22:18:24.003Z,14.92
2023-08-07T22:20:54.429Z,14.97
2023-08-07T22:23:28.010Z,14.92
2023-08-07T22:25:58.458Z,14.90
2023-08-07T22:28:28.990Z,14.80
2023-08-07T22:30:59.428Z,14.82
2023-08-07T22:33:29.963Z,14.74
2023-08-07T22:36:00.495Z,14.75
2023-08-07T22:38:34.145Z,14.71
2023-08-07T22:41:04.574Z,14.73
2023-08-07T22:43:35.077Z,14.71
2023-08-07T22:46:05.685Z,14.66
2023-08-07T22:48:36.181Z,14.67
2023-08-07T22:51:07.300Z,14.64
2023-08-07T22:53:40.397Z,14.72
2023-08-07T22:56:10.853Z,14.68
2023-08-07T22:58:41.302Z,14.72
2023-08-07T23:01:12.205Z,14.81
2023-08-07T23:03:43.541Z,14.74
2023-08-07T23:06:13.846Z,14.68
2023-08-07T23:08:46.904Z,14.73
2023-08-07T23:11:17.355Z,14.74
2023-08-07T23:13:47.829Z,14.69
2023-08-07T23:16:18.719Z,14.67
2023-08-07T23:18:48.953Z,14.63
2023-08-07T23:21:19.905Z,14.67
2023-08-07T23:23:52.617Z,14.58
2023-08-07T23:26:23.131Z,14.53
2023-08-07T23:28:53.584Z,14.55
2023-08-07T23:31:26.349Z,14.57
2023-08-07T23:33:56.822Z,14.49
2023-08-07T23:36:27.388Z,14.48
2023-08-07T23:39:00.469Z,14.43
2023-08-07T23:41:30.869Z,14.41
2023-08-07T23:44:01.341Z,14.35
2023-08-07T23:46:31.801Z,14.37
2023-08-07T23:49:02.265Z,14.32
2023-08-07T23:51:32.683Z,14.30
2023-08-07T23:54:05.762Z,14.18
2023-08-07T23:56:36.245Z,14.20
2023-08-07T23:59:07.027Z,14.25
